createdAt,value
2023-09-07T00:05:52.138Z,0
2023-09-07T00:25:59.133Z,0
2023-09-07T00:46:06.214Z,0
2023-09-07T00:56:09.470Z,0
2023-09-07T01:16:16.162Z,0
2023-09-07T01:36:23.483Z,0
2023-09-07T01:46:26.612Z,0
2023-09-07T01:56:29.811Z,0
2023-09-07T02:06:33.746Z,0
2023-09-07T02:16:37.768Z,0
2023-09-07T03:16:58.744Z,0
2023-09-07T03:27:02.124Z,0
2023-09-07T03:37:06.150Z,0
2023-09-07T03:47:10.183Z,0
2023-09-07T03:57:13.571Z,0
2023-09-07T04:07:17.351Z,0
2023-09-07T04:17:20.455Z,0
2023-09-07T04:27:23.834Z,0
2023-09-07T04:37:27.453Z,0
2023-09-07T05:17:42.472Z,0
2023-09-07T05:27:45.845Z,0
2023-09-07T05:37:48.976Z,0
2023-09-07T05:47:52.971Z,0
2023-09-07T05:57:56.930Z,0
2023-09-07T06:08:00.563Z,9
2023-09-07T06:18:03.707Z,2
2023-09-07T06:28:07.651Z,2
2023-09-07T06:38:11.451Z,0
2023-09-07T06:48:14.031Z,0
2023-09-07T06:58:17.826Z,4
2023-09-07T07:08:21.379Z,2
2023-09-07T07:28:29.317Z,4
2023-09-07T07:38:32.968Z,4
2023-09-07T07:48:36.637Z,5
2023-09-07T07:58:40.236Z,9
2023-09-07T08:08:44.222Z,6
2023-09-07T08:18:47.351Z,2
2023-09-07T08:28:51.154Z,4
2023-09-07T08:49:00.202Z,5
2023-09-07T08:59:02.836Z,10
2023-09-07T09:09:05.270Z,4
2023-09-07T09:19:08.858Z,5
2023-09-07T09:29:12.112Z,6
2023-09-07T09:39:15.963Z,6
2023-09-07T09:49:19.414Z,5
2023-09-07T09:59:23.060Z,4
2023-09-07T10:09:26.665Z,5
2023-09-07T10:19:30.620Z,3
2023-09-07T10:29:34.007Z,5
2023-09-07T10:39:37.278Z,4
2023-09-07T10:49:40.901Z,4
2023-09-07T11:09:47.888Z,0
2023-09-07T11:19:51.709Z,4
2023-09-07T11:29:54.823Z,12
2023-09-07T12:10:09.769Z,12
2023-09-07T13:00:27.008Z,4
2023-09-07T13:40:41.510Z,10
2023-09-07T14:10:51.328Z,16
2023-09-07T14:30:58.065Z,19
2023-09-07T14:41:03.160Z,27
2023-09-07T14:51:04.204Z,19
2023-09-07T15:01:08.146Z,5
2023-09-07T15:11:11.569Z,7
2023-09-07T15:21:15.246Z,5
2023-09-07T15:31:19.170Z,11
2023-09-07T15:41:22.760Z,18
2023-09-07T15:51:25.737Z,5
2023-09-07T16:01:29.274Z,16
2023-09-07T16:11:32.896Z,4
2023-09-07T16:21:36.738Z,17
2023-09-07T16:41:43.608Z,11
2023-09-07T17:01:50.915Z,15
2023-09-07T17:11:54.537Z,24
2023-09-07T17:21:58.298Z,15
2023-09-07T17:22:06.461Z,12
2023-09-07T17:32:10.212Z,10
2023-09-07T18:12:23.836Z,15
2023-09-07T18:22:27.322Z,10
2023-09-07T18:42:35.212Z,7
2023-09-07T18:52:39.188Z,8
2023-09-07T19:12:47.149Z,8
2023-09-07T19:32:53.592Z,0
2023-09-07T19:42:56.819Z,0
2023-09-07T19:53:00.174Z,0
2023-09-07T20:03:03.343Z,0
2023-09-07T20:13:06.563Z,0
2023-09-07T20:23:10.372Z,0
2023-09-07T20:33:13.754Z,0
2023-09-07T20:43:16.845Z,0
2023-09-07T20:53:20.411Z,2
2023-09-07T21:03:24.143Z,1
2023-09-07T21:13:27.163Z,0
2023-09-07T21:23:30.365Z,3
2023-09-07T21:43:37.680Z,0
2023-09-07T21:53:40.764Z,0
2023-09-07T22:03:44.428Z,0
2023-09-07T22:33:54.852Z,0
2023-09-07T22:43:58.424Z,0
2023-09-07T22:54:01.838Z,0
